createdAt,value
2022-12-04T00:01:13.973Z,39.65
2022-12-04T00:04:01.553Z,40.25
2022-12-04T00:06:47.300Z,38.45
2022-12-04T00:09:32.871Z,38.88
2022-12-04T00:12:18.409Z,39.83
2022-12-04T00:18:10.380Z,38.75
2022-12-04T00:20:55.907Z,36.67
2022-12-04T00:23:41.943Z,37.00
2022-12-04T00:26:29.019Z,35.92
2022-12-04T00:29:14.770Z,38.70
2022-12-04T00:32:00.501Z,36.47
2022-12-04T00:34:45.900Z,33.58
2022-12-04T00:37:33.405Z,38.15
2022-12-04T00:40:18.665Z,36.60
2022-12-04T00:43:05.134Z,33.40
2022-12-04T00:45:51.090Z,33.63
2022-12-04T00:48:36.445Z,31.88
2022-12-04T00:51:24.243Z,37.42
2022-12-04T00:54:09.712Z,37.38
2022-12-04T00:56:55.819Z,33.15
2022-12-04T00:59:41.254Z,37.65
2022-12-04T01:02:26.780Z,33.55
2022-12-04T01:05:12.695Z,34.03
2022-12-04T01:07:58.234Z,38.53
2022-12-04T01:10:43.871Z,33.65
2022-12-04T01:13:29.360Z,37.35
2022-12-04T01:16:23.111Z,38.17
2022-12-04T01:19:11.475Z,36.13
2022-12-04T01:21:56.979Z,34.45
2022-12-04T01:24:42.537Z,37.10
2022-12-04T01:27:27.847Z,32.70
2022-12-04T01:30:14.010Z,36.00
2022-12-04T01:32:59.730Z,33.55
2022-12-04T01:35:55.892Z,30.85
2022-12-04T01:38:42.232Z,34.38
2022-12-04T01:41:30.500Z,35.17
2022-12-04T01:44:24.322Z,36.28
2022-12-04T01:47:11.195Z,35.97
2022-12-04T01:49:58.929Z,37.78
2022-12-04T01:52:44.349Z,36.08
2022-12-04T01:55:31.046Z,33.53
2022-12-04T01:58:19.941Z,37.00
2022-12-04T02:01:08.976Z,34.17
2022-12-04T02:03:55.019Z,37.15
2022-12-04T02:06:40.609Z,38.20
2022-12-04T02:09:27.260Z,37.97
2022-12-04T02:12:36.036Z,37.17
2022-12-04T02:15:41.013Z,42.03
2022-12-04T02:18:46.271Z,36.13
2022-12-04T02:21:40.523Z,39.40
2022-12-04T02:24:56.252Z,38.00
2022-12-04T02:27:41.985Z,39.03
2022-12-04T02:30:30.462Z,40.35
2022-12-04T02:34:02.395Z,39.30
2022-12-04T02:36:54.006Z,39.55
2022-12-04T02:39:55.103Z,39.47
2022-12-04T02:42:47.990Z,34.53
2022-12-04T02:45:46.794Z,40.42
2022-12-04T02:48:37.095Z,32.75
2022-12-04T02:51:25.195Z,42.10
2022-12-04T02:54:22.656Z,39.97
2022-12-04T02:57:14.024Z,41.78
2022-12-04T03:00:01.773Z,38.78
2022-12-04T03:02:56.491Z,39.58
2022-12-04T03:05:53.802Z,38.83
2022-12-04T03:08:43.901Z,37.35
2022-12-04T03:11:34.224Z,37.10
2022-12-04T03:14:24.678Z,40.60
2022-12-04T03:17:16.684Z,43.80
2022-12-04T03:20:08.333Z,40.20
2022-12-04T03:23:03.117Z,35.60
2022-12-04T03:26:03.650Z,40.80
2022-12-04T03:29:10.430Z,40.63
2022-12-04T03:32:22.601Z,41.28
2022-12-04T03:35:21.700Z,39.20
2022-12-04T03:38:44.184Z,39.17
2022-12-04T03:41:50.681Z,39.70
2022-12-04T03:44:46.198Z,39.20
2022-12-04T03:47:42.234Z,40.13
2022-12-04T03:50:40.289Z,38.22
2022-12-04T03:53:34.506Z,37.67
2022-12-04T03:56:27.567Z,39.55
2022-12-04T03:59:21.868Z,39.42
2022-12-04T04:02:14.109Z,38.57
2022-12-04T04:05:01.453Z,35.47
2022-12-04T04:07:51.878Z,35.47
2022-12-04T04:10:37.456Z,35.47
2022-12-04T04:13:46.854Z,35.92
2022-12-04T04:16:54.040Z,36.55
2022-12-04T04:20:01.654Z,32.40
2022-12-04T04:23:07.687Z,31.73
2022-12-04T04:25:54.924Z,33.42
2022-12-04T04:28:41.905Z,37.88
2022-12-04T04:31:43.785Z,32.72
2022-12-04T04:34:41.401Z,33.42
2022-12-04T04:37:35.417Z,35.33
2022-12-04T04:40:27.172Z,34.70
2022-12-04T04:43:41.019Z,33.25
2022-12-04T04:46:34.186Z,38.65
2022-12-04T04:49:23.140Z,35.45
2022-12-04T04:52:09.438Z,35.55
2022-12-04T04:54:56.861Z,35.05
2022-12-04T04:57:42.985Z,35.65
2022-12-04T05:00:28.631Z,37.55
2022-12-04T05:03:14.180Z,36.05
2022-12-04T05:05:59.940Z,35.47
2022-12-04T05:08:45.477Z,34.13
2022-12-04T05:11:31.664Z,34.47
2022-12-04T05:14:16.838Z,35.78
2022-12-04T05:17:07.873Z,31.98
2022-12-04T05:19:57.978Z,35.63
2022-12-04T05:22:43.643Z,32.83
2022-12-04T05:25:29.314Z,30.88
2022-12-04T05:28:15.043Z,31.05
2022-12-04T05:31:03.516Z,34.28
2022-12-04T05:33:48.935Z,34.22
2022-12-04T05:36:34.438Z,29.35
2022-12-04T05:39:19.925Z,32.05
2022-12-04T05:42:05.596Z,31.30
2022-12-04T05:44:51.104Z,31.65
2022-12-04T05:47:40.917Z,30.60
2022-12-04T05:50:26.572Z,29.08
2022-12-04T05:53:12.658Z,31.27
2022-12-04T05:56:01.397Z,30.70
2022-12-04T05:58:46.900Z,34.30
2022-12-04T06:01:32.769Z,31.15
2022-12-04T06:04:18.437Z,28.20
2022-12-04T06:07:04.137Z,29.90
2022-12-04T06:09:49.740Z,29.00
2022-12-04T06:12:35.005Z,31.02
2022-12-04T06:15:20.492Z,28.30
2022-12-04T06:18:06.396Z,32.08
2022-12-04T06:20:57.700Z,28.40
2022-12-04T06:23:43.382Z,29.25
2022-12-04T06:26:28.834Z,28.35
2022-12-04T06:29:14.986Z,27.15
2022-12-04T06:32:00.749Z,28.90
2022-12-04T06:34:46.097Z,27.48
2022-12-04T06:37:31.367Z,29.02
2022-12-04T06:40:17.106Z,29.65
2022-12-04T06:43:02.760Z,28.40
2022-12-04T06:45:48.512Z,25.60
2022-12-04T06:48:34.323Z,30.30
2022-12-04T06:51:23.983Z,24.85
2022-12-04T06:54:10.799Z,30.23
2022-12-04T06:56:56.181Z,26.00
2022-12-04T06:59:41.849Z,29.92
2022-12-04T07:02:27.626Z,27.80
2022-12-04T07:05:13.051Z,29.98
2022-12-04T07:07:58.579Z,29.23
2022-12-04T07:10:44.337Z,30.80
2022-12-04T07:13:30.044Z,28.55
2022-12-04T07:16:18.408Z,31.50
2022-12-04T07:19:04.132Z,30.15
2022-12-04T07:21:50.011Z,26.20
2022-12-04T07:24:36.462Z,27.50
2022-12-04T07:27:22.106Z,27.15
2022-12-04T07:30:14.018Z,28.60
2022-12-04T07:33:00.807Z,23.90
2022-12-04T07:35:54.390Z,26.13
2022-12-04T07:38:40.184Z,26.00
2022-12-04T07:41:25.981Z,25.23
2022-12-04T07:44:11.523Z,25.95
2022-12-04T07:46:57.386Z,26.60
2022-12-04T07:49:42.837Z,24.38
2022-12-04T07:52:28.461Z,26.77
2022-12-04T07:55:17.509Z,24.98
2022-12-04T07:58:05.971Z,25.60
2022-12-04T08:00:51.441Z,43.22
2022-12-04T08:03:40.847Z,25.02
2022-12-04T08:06:30.425Z,57.85
2022-12-04T08:09:16.024Z,23.88
2022-12-04T08:12:01.634Z,26.15
2022-12-04T08:14:47.059Z,24.58
2022-12-04T08:17:32.912Z,28.52
2022-12-04T08:20:18.575Z,23.30
2022-12-04T08:23:03.938Z,30.15
2022-12-04T08:25:49.579Z,27.58
2022-12-04T08:28:35.976Z,21.75
2022-12-04T08:31:24.735Z,25.63
2022-12-04T08:34:10.578Z,21.27
2022-12-04T08:36:56.030Z,20.23
2022-12-04T08:39:41.667Z,22.55
2022-12-04T08:42:27.038Z,24.20
2022-12-04T08:45:12.328Z,21.02
2022-12-04T08:47:58.121Z,22.05
2022-12-04T08:50:46.739Z,20.15
2022-12-04T08:53:32.441Z,21.20
2022-12-04T08:56:18.694Z,39.55
2022-12-04T08:59:04.129Z,22.88
2022-12-04T09:01:54.115Z,21.40
2022-12-04T09:04:39.563Z,24.65
2022-12-04T09:07:25.300Z,22.88
2022-12-04T09:10:11.431Z,23.95
2022-12-04T09:12:56.866Z,23.15
2022-12-04T09:15:42.746Z,25.60
2022-12-04T09:18:28.228Z,20.40
2022-12-04T09:21:16.246Z,23.35
2022-12-04T09:24:01.986Z,19.20
2022-12-04T09:26:47.546Z,22.58
2022-12-04T09:29:33.587Z,22.40
2022-12-04T09:32:19.212Z,21.52
2022-12-04T09:35:07.471Z,23.90
2022-12-04T09:37:53.332Z,22.55
2022-12-04T09:40:52.521Z,23.45
2022-12-04T09:43:49.668Z,22.88
2022-12-04T09:46:45.336Z,20.48
2022-12-04T09:49:47.996Z,21.00
2022-12-04T09:52:50.284Z,19.85
2022-12-04T09:55:39.060Z,21.38
2022-12-04T09:58:39.006Z,19.13
2022-12-04T10:01:31.088Z,19.98
2022-12-04T10:04:17.829Z,17.25
2022-12-04T10:07:35.811Z,21.58
2022-12-04T10:10:49.119Z,22.48
2022-12-04T10:14:08.921Z,22.35
2022-12-04T10:17:03.449Z,20.42
2022-12-04T10:20:20.128Z,20.20
2022-12-04T10:23:29.395Z,23.10
2022-12-04T10:26:20.264Z,21.75
2022-12-04T10:29:15.887Z,23.02
2022-12-04T10:32:27.179Z,17.92
2022-12-04T10:35:22.051Z,21.23
2022-12-04T10:38:15.387Z,20.58
2022-12-04T10:41:11.717Z,21.35
2022-12-04T10:44:00.081Z,22.33
2022-12-04T10:46:46.648Z,20.90
2022-12-04T10:49:35.629Z,20.58
2022-12-04T10:52:22.071Z,19.50
2022-12-04T10:55:07.851Z,19.58
2022-12-04T10:57:53.470Z,23.48
2022-12-04T11:00:39.138Z,18.27
2022-12-04T11:03:28.569Z,22.10
2022-12-04T11:06:14.836Z,18.90
2022-12-04T11:09:02.028Z,24.05
2022-12-04T11:11:48.125Z,24.77
2022-12-04T11:14:33.869Z,24.20
2022-12-04T11:17:19.948Z,23.45
2022-12-04T11:20:15.376Z,25.80
2022-12-04T11:23:01.076Z,24.38
2022-12-04T11:25:50.402Z,23.42
2022-12-04T11:28:42.119Z,24.45
2022-12-04T11:31:30.238Z,26.85
2022-12-04T11:34:21.169Z,24.98
2022-12-04T11:37:15.863Z,27.77
2022-12-04T11:40:04.975Z,23.65
2022-12-04T11:43:11.795Z,22.52
2022-12-04T11:45:58.428Z,26.85
2022-12-04T11:48:45.982Z,26.08
2022-12-04T11:51:56.492Z,23.95
2022-12-04T11:54:51.846Z,24.63
2022-12-04T11:58:12.852Z,26.42
2022-12-04T12:01:17.261Z,29.65
2022-12-04T12:04:21.569Z,27.77
2022-12-04T12:07:35.626Z,27.70
2022-12-04T12:10:41.663Z,29.30
2022-12-04T12:13:42.904Z,25.88
2022-12-04T12:17:09.052Z,26.65
2022-12-04T12:20:21.848Z,26.48
2022-12-04T12:23:26.043Z,28.08
2022-12-04T12:26:14.542Z,28.35
2022-12-04T12:29:27.114Z,27.05
2022-12-04T12:32:24.968Z,27.40
2022-12-04T12:35:38.985Z,27.55
2022-12-04T12:38:37.645Z,27.40
2022-12-04T12:41:39.328Z,27.27
2022-12-04T12:44:35.401Z,23.48
2022-12-04T12:47:26.249Z,31.63
2022-12-04T12:50:32.872Z,31.65
2022-12-04T12:53:26.906Z,26.42
2022-12-04T12:56:13.347Z,25.30
2022-12-04T12:59:03.267Z,31.75
2022-12-04T13:02:06.020Z,34.90
2022-12-04T13:04:55.472Z,35.42
2022-12-04T13:07:44.408Z,31.13
2022-12-04T13:10:56.106Z,25.65
2022-12-04T13:13:52.942Z,25.88
2022-12-04T13:17:15.113Z,28.50
2022-12-04T13:20:10.139Z,23.67
2022-12-04T13:23:19.956Z,26.38
2022-12-04T13:26:29.492Z,22.08
2022-12-04T13:29:20.919Z,29.77
2022-12-04T13:32:34.770Z,32.13
2022-12-04T13:35:41.470Z,31.75
2022-12-04T13:38:53.724Z,32.88
2022-12-04T13:41:42.236Z,29.08
2022-12-04T13:44:29.842Z,30.00
2022-12-04T13:47:32.955Z,29.80
2022-12-04T13:50:18.351Z,41.60
2022-12-04T13:53:04.605Z,35.92
2022-12-04T13:55:56.726Z,30.27
2022-12-04T13:58:42.362Z,31.00
2022-12-04T14:01:48.586Z,29.50
2022-12-04T14:04:52.218Z,32.83
2022-12-04T14:07:41.091Z,34.63
2022-12-04T14:10:30.953Z,35.00
2022-12-04T14:13:24.475Z,36.25
2022-12-04T14:16:25.732Z,38.00
2022-12-04T14:19:33.716Z,42.83
2022-12-04T14:22:30.385Z,39.75
2022-12-04T14:25:16.189Z,31.60
2022-12-04T14:28:23.057Z,34.65
2022-12-04T14:31:34.467Z,32.40
2022-12-04T14:34:29.439Z,34.38
2022-12-04T14:37:24.635Z,34.50
2022-12-04T14:40:26.371Z,37.50
2022-12-04T14:43:22.284Z,33.25
2022-12-04T14:46:23.803Z,32.00
2022-12-04T14:49:20.042Z,34.92
2022-12-04T14:52:25.415Z,32.55
2022-12-04T14:55:37.117Z,32.80
2022-12-04T14:58:34.854Z,31.90
2022-12-04T15:01:33.388Z,31.33
2022-12-04T15:04:35.458Z,32.53
2022-12-04T15:07:24.039Z,31.63
2022-12-04T15:10:41.750Z,32.17
2022-12-04T15:13:33.156Z,33.20
2022-12-04T15:16:23.345Z,34.83
2022-12-04T15:19:18.883Z,32.78
2022-12-04T15:24:57.651Z,34.03
2022-12-04T15:27:43.905Z,33.05
2022-12-04T15:30:31.076Z,37.97
2022-12-04T15:33:22.212Z,37.08
2022-12-04T15:36:14.914Z,38.30
2022-12-04T15:39:02.542Z,38.80
2022-12-04T15:41:48.626Z,39.75
2022-12-04T15:44:35.233Z,38.97
2022-12-04T15:47:25.599Z,43.40
2022-12-04T15:50:16.781Z,35.40
2022-12-04T15:53:21.408Z,41.42
2022-12-04T15:56:10.140Z,42.67
2022-12-04T15:59:01.687Z,42.65
2022-12-04T16:01:47.358Z,38.58
2022-12-04T16:04:35.689Z,39.90
2022-12-04T16:07:27.616Z,40.95
2022-12-04T16:10:26.210Z,38.67
2022-12-04T16:13:28.065Z,39.33
2022-12-04T16:16:20.989Z,37.67
2022-12-04T16:19:12.536Z,39.17
2022-12-04T16:21:58.161Z,38.83
2022-12-04T16:24:45.216Z,37.50
2022-12-04T16:27:30.948Z,45.78
2022-12-04T16:30:16.633Z,44.35
2022-12-04T16:33:02.338Z,44.42
2022-12-04T16:35:47.883Z,46.22
2022-12-04T16:38:33.135Z,45.72
2022-12-04T16:41:21.448Z,42.60
2022-12-04T16:44:13.573Z,43.88
2022-12-04T16:46:58.891Z,49.03
2022-12-04T16:49:47.307Z,50.70
2022-12-04T16:52:33.013Z,48.03
2022-12-04T16:55:32.173Z,53.30
2022-12-04T16:58:19.006Z,53.58
2022-12-04T17:01:06.562Z,53.40
2022-12-04T17:03:52.694Z,50.40
2022-12-04T17:06:38.814Z,49.35
2022-12-04T17:09:24.578Z,50.58
2022-12-04T17:12:09.911Z,51.70
2022-12-04T17:14:55.892Z,52.58
2022-12-04T17:17:43.495Z,53.90
2022-12-04T17:20:29.991Z,50.53
2022-12-04T17:23:15.808Z,46.92
2022-12-04T17:26:03.568Z,50.92
2022-12-04T17:28:52.960Z,53.80
2022-12-04T17:31:38.910Z,50.92
2022-12-04T17:34:24.325Z,56.95
2022-12-04T17:37:10.035Z,50.85
2022-12-04T17:39:55.614Z,56.22
2022-12-04T17:42:42.901Z,49.70
2022-12-04T17:45:28.781Z,57.10
2022-12-04T17:48:14.228Z,53.33
2022-12-04T17:51:13.042Z,49.25
2022-12-04T17:53:59.629Z,47.53
2022-12-04T17:56:49.531Z,49.90
2022-12-04T17:59:36.954Z,48.95
2022-12-04T18:02:22.256Z,45.45
2022-12-04T18:05:07.817Z,52.72
2022-12-04T18:07:53.402Z,44.85
2022-12-04T18:10:39.177Z,47.97
2022-12-04T18:13:24.394Z,54.13
2022-12-04T18:16:11.536Z,51.33
2022-12-04T18:18:58.727Z,58.25
2022-12-04T18:21:44.352Z,41.75
2022-12-04T18:24:29.911Z,49.85
2022-12-04T18:27:15.609Z,44.70
2022-12-04T18:30:01.715Z,48.88
2022-12-04T18:32:48.065Z,50.38
2022-12-04T18:35:33.886Z,46.50
2022-12-04T18:38:19.399Z,50.25
2022-12-04T18:41:07.150Z,52.85
2022-12-04T18:43:53.629Z,49.25
2022-12-04T18:46:39.572Z,53.13
2022-12-04T18:49:25.258Z,53.05
2022-12-04T18:52:10.493Z,46.38
2022-12-04T18:54:56.224Z,46.80
2022-12-04T18:57:41.902Z,47.78
2022-12-04T19:00:27.626Z,46.78
2022-12-04T19:03:13.166Z,48.70
2022-12-04T19:05:58.483Z,48.22
2022-12-04T19:08:44.127Z,55.15
2022-12-04T19:11:29.454Z,59.13
2022-12-04T19:14:22.993Z,60.22
2022-12-04T19:17:09.140Z,56.67
2022-12-04T19:19:55.156Z,51.55
2022-12-04T19:22:40.931Z,55.15
2022-12-04T19:25:26.407Z,51.15
2022-12-04T19:28:11.871Z,44.30
2022-12-04T19:30:57.550Z,52.55
2022-12-04T19:33:43.100Z,49.38
2022-12-04T19:36:30.191Z,43.90
2022-12-04T19:39:15.879Z,48.03
2022-12-04T19:42:01.341Z,45.85
2022-12-04T19:44:48.923Z,47.78
2022-12-04T19:47:35.314Z,47.03
2022-12-04T19:50:21.139Z,41.92
2022-12-04T19:53:06.357Z,45.45
2022-12-04T19:55:52.014Z,46.05
2022-12-04T19:58:37.524Z,40.67
2022-12-04T20:01:28.737Z,40.83
2022-12-04T20:04:14.531Z,45.20
2022-12-04T20:06:59.743Z,43.78
2022-12-04T20:09:52.135Z,45.75
2022-12-04T20:12:38.082Z,36.65
2022-12-04T20:15:23.759Z,41.00
2022-12-04T20:18:09.067Z,38.15
2022-12-04T20:20:56.462Z,40.45
2022-12-04T20:23:46.162Z,43.30
2022-12-04T20:26:35.754Z,38.95
2022-12-04T20:29:21.660Z,42.05
2022-12-04T20:32:07.490Z,37.00
2022-12-04T20:34:52.929Z,38.17
2022-12-04T20:37:38.645Z,32.17
2022-12-04T20:40:24.097Z,36.28
2022-12-04T20:43:09.779Z,33.35
2022-12-04T20:45:55.360Z,40.10
2022-12-04T20:48:47.973Z,32.42
2022-12-04T20:51:36.060Z,34.85
2022-12-04T20:54:22.884Z,38.03
2022-12-04T20:57:08.367Z,32.38
2022-12-04T20:59:54.791Z,36.10
2022-12-04T21:02:40.312Z,39.78
2022-12-04T21:05:26.070Z,39.13
2022-12-04T21:08:11.868Z,33.67
2022-12-04T21:10:58.543Z,31.98
2022-12-04T21:14:02.471Z,41.20
2022-12-04T21:16:48.723Z,36.65
2022-12-04T21:19:34.020Z,36.80
2022-12-04T21:22:19.998Z,36.22
2022-12-04T21:25:05.758Z,30.08
2022-12-04T21:27:52.311Z,35.55
2022-12-04T21:30:38.414Z,33.08
2022-12-04T21:33:23.852Z,31.70
2022-12-04T21:36:10.431Z,28.27
2022-12-04T21:38:56.360Z,28.77
2022-12-04T21:42:01.201Z,24.38
2022-12-04T21:44:47.206Z,24.55
2022-12-04T21:47:33.135Z,24.65
2022-12-04T21:50:18.767Z,24.00
2022-12-04T21:53:05.064Z,23.88
2022-12-04T21:55:52.816Z,26.48
2022-12-04T21:58:38.368Z,23.83
2022-12-04T22:01:25.974Z,23.67
2022-12-04T22:04:11.865Z,24.38
2022-12-04T22:06:57.520Z,22.23
2022-12-04T22:09:43.049Z,23.98
2022-12-04T22:15:39.539Z,22.83
2022-12-04T22:18:24.972Z,21.67
2022-12-04T22:21:14.021Z,22.55
2022-12-04T22:24:01.804Z,25.35
2022-12-04T22:26:47.233Z,22.85
2022-12-04T22:32:38.388Z,22.40
2022-12-04T22:35:24.030Z,25.10
2022-12-04T22:38:09.498Z,25.15
2022-12-04T22:40:54.785Z,24.73
2022-12-04T22:43:41.447Z,22.58
2022-12-04T22:46:27.469Z,23.48
2022-12-04T22:49:13.303Z,22.95
2022-12-04T22:51:58.836Z,24.05
2022-12-04T22:54:44.857Z,22.08
2022-12-04T22:57:30.129Z,22.75
2022-12-04T23:00:16.073Z,26.75
2022-12-04T23:03:01.929Z,25.77
2022-12-04T23:05:47.283Z,24.85
2022-12-04T23:08:33.065Z,28.42
2022-12-04T23:11:20.817Z,27.38
2022-12-04T23:14:09.196Z,24.75
2022-12-04T23:16:55.632Z,25.20
2022-12-04T23:19:40.925Z,24.15
2022-12-04T23:22:27.030Z,22.23
2022-12-04T23:25:12.449Z,20.75
2022-12-04T23:27:57.877Z,24.05
2022-12-04T23:30:47.083Z,22.08
2022-12-04T23:33:32.992Z,22.35
2022-12-04T23:36:18.548Z,20.58
2022-12-04T23:39:04.409Z,25.50
2022-12-04T23:41:49.986Z,19.25
2022-12-04T23:44:35.399Z,21.83
2022-12-04T23:47:20.942Z,21.90
2022-12-04T23:50:07.028Z,22.85
2022-12-04T23:52:52.741Z,22.38
2022-12-04T23:55:38.380Z,25.80
2022-12-04T23:58:23.910Z,24.88
